sensor_id;sensor_type;location;lat;lon;timestamp;P1;durP1;ratioP1;P2;durP2;ratioP2
14007;SDS011;61651;45.508;12.232;2024-02-15T00:01:44;51.13;;;33.30;;
14007;SDS011;61651;45.508;12.232;2024-02-15T00:04:46;47.03;;;33.53;;
14007;SDS011;61651;45.508;12.232;2024-02-15T00:07:48;43.30;;;32.70;;
14007;SDS011;61651;45.508;12.232;2024-02-15T00:10:50;35.43;;;31.73;;
14007;SDS011;61651;45.508;12.232;2024-02-15T00:13:53;35.53;;;31.63;;
14007;SDS011;61651;45.508;12.232;2024-02-15T00:16:56;36.93;;;31.67;;
14007;SDS011;61651;45.508;12.232;2024-02-15T00:19:59;35.80;;;31.73;;
14007;SDS011;61651;45.508;12.232;2024-02-15T00:23:03;44.03;;;31.27;;
14007;SDS011;61651;45.508;12.232;2024-02-15T00:26:06;37.83;;;29.10;;
14007;SDS011;61651;45.508;12.232;2024-02-15T00:29:11;50.80;;;27.90;;
14007;SDS011;61651;45.508;12.232;2024-02-15T00:32:13;40.40;;;27.57;;
14007;SDS011;61651;45.508;12.232;2024-02-15T00:35:15;63.70;;;25.80;;
14007;SDS011;61651;45.508;12.232;2024-02-15T00:38:17;37.23;;;25.93;;
14007;SDS011;61651;45.508;12.232;2024-02-15T00:41:19;69.83;;;27.23;;
14007;SDS011;61651;45.508;12.232;2024-02-15T00:44:23;43.37;;;25.37;;
14007;SDS011;61651;45.508;12.232;2024-02-15T00:47:24;36.50;;;25.73;;
14007;SDS011;61651;45.508;12.232;2024-02-15T00:50:28;69.43;;;27.37;;
14007;SDS011;61651;45.508;12.232;2024-02-15T00:53:30;48.70;;;26.33;;
14007;SDS011;61651;45.508;12.232;2024-02-15T00:56:32;43.80;;;25.90;;
14007;SDS011;61651;45.508;12.232;2024-02-15T00:59:35;68.43;;;25.20;;
14007;SDS011;61651;45.508;12.232;2024-02-15T01:02:37;66.83;;;27.27;;
14007;SDS011;61651;45.508;12.232;2024-02-15T01:05:39;46.73;;;26.23;;
14007;SDS011;61651;45.508;12.232;2024-02-15T01:08:41;39.73;;;24.37;;
14007;SDS011;61651;45.508;12.232;2024-02-15T01:11:43;49.80;;;25.00;;
14007;SDS011;61651;45.508;12.232;2024-02-15T01:14:47;54.90;;;24.67;;
14007;SDS011;61651;45.508;12.232;2024-02-15T01:17:49;43.97;;;24.67;;
14007;SDS011;61651;45.508;12.232;2024-02-15T01:20:51;41.87;;;25.97;;
14007;SDS011;61651;45.508;12.232;2024-02-15T01:23:54;49.30;;;25.37;;
14007;SDS011;61651;45.508;12.232;2024-02-15T01:26:56;45.37;;;24.53;;
14007;SDS011;61651;45.508;12.232;2024-02-15T01:29:59;51.37;;;25.27;;
14007;SDS011;61651;45.508;12.232;2024-02-15T01:33:02;55.67;;;24.83;;
14007;SDS011;61651;45.508;12.232;2024-02-15T01:36:04;71.23;;;25.83;;
14007;SDS011;61651;45.508;12.232;2024-02-15T01:39:08;54.57;;;25.70;;
14007;SDS011;61651;45.508;12.232;2024-02-15T01:42:10;39.37;;;24.43;;
14007;SDS011;61651;45.508;12.232;2024-02-15T01:45:15;47.57;;;26.40;;
14007;SDS011;61651;45.508;12.232;2024-02-15T01:48:17;34.80;;;24.80;;
14007;SDS011;61651;45.508;12.232;2024-02-15T01:51:20;75.07;;;27.07;;
14007;SDS011;61651;45.508;12.232;2024-02-15T01:54:22;60.00;;;27.17;;
14007;SDS011;61651;45.508;12.232;2024-02-15T01:57:25;50.70;;;25.57;;
14007;SDS011;61651;45.508;12.232;2024-02-15T02:00:30;48.80;;;25.57;;
14007;SDS011;61651;45.508;12.232;2024-02-15T02:03:32;35.73;;;24.90;;
14007;SDS011;61651;45.508;12.232;2024-02-15T02:06:36;48.17;;;25.67;;
14007;SDS011;61651;45.508;12.232;2024-02-15T02:09:38;50.30;;;25.53;;
14007;SDS011;61651;45.508;12.232;2024-02-15T02:12:40;53.07;;;24.37;;
14007;SDS011;61651;45.508;12.232;2024-02-15T02:15:44;53.03;;;27.57;;
14007;SDS011;61651;45.508;12.232;2024-02-15T02:18:46;72.53;;;28.30;;
14007;SDS011;61651;45.508;12.232;2024-02-15T02:21:48;39.40;;;28.70;;
14007;SDS011;61651;45.508;12.232;2024-02-15T02:24:59;72.17;;;30.33;;
14007;SDS011;61651;45.508;12.232;2024-02-15T02:28:03;68.93;;;31.43;;
14007;SDS011;61651;45.508;12.232;2024-02-15T02:31:06;74.30;;;32.17;;
14007;SDS011;61651;45.508;12.232;2024-02-15T02:34:11;54.47;;;33.67;;
14007;SDS011;61651;45.508;12.232;2024-02-15T02:37:14;46.33;;;32.60;;
14007;SDS011;61651;45.508;12.232;2024-02-15T02:40:18;41.53;;;32.53;;
14007;SDS011;61651;45.508;12.232;2024-02-15T02:43:20;41.03;;;33.90;;
14007;SDS011;61651;45.508;12.232;2024-02-15T02:46:22;51.27;;;32.60;;
14007;SDS011;61651;45.508;12.232;2024-02-15T02:49:24;66.20;;;31.97;;
14007;SDS011;61651;45.508;12.232;2024-02-15T02:52:26;48.10;;;28.47;;
14007;SDS011;61651;45.508;12.232;2024-02-15T02:55:30;64.40;;;29.83;;
14007;SDS011;61651;45.508;12.232;2024-02-15T02:58:32;60.90;;;31.27;;
14007;SDS011;61651;45.508;12.232;2024-02-15T03:01:34;54.57;;;30.77;;
14007;SDS011;61651;45.508;12.232;2024-02-15T03:04:36;47.97;;;30.20;;
14007;SDS011;61651;45.508;12.232;2024-02-15T03:07:39;52.70;;;30.60;;
14007;SDS011;61651;45.508;12.232;2024-02-15T03:10:43;59.10;;;30.63;;
14007;SDS011;61651;45.508;12.232;2024-02-15T03:13:45;54.07;;;29.83;;
14007;SDS011;61651;45.508;12.232;2024-02-15T03:16:48;34.07;;;29.73;;
14007;SDS011;61651;45.508;12.232;2024-02-15T03:19:50;39.30;;;32.70;;
14007;SDS011;61651;45.508;12.232;2024-02-15T03:22:53;49.93;;;31.93;;
14007;SDS011;61651;45.508;12.232;2024-02-15T03:25:56;36.43;;;30.37;;
14007;SDS011;61651;45.508;12.232;2024-02-15T03:28:58;41.57;;;32.00;;
14007;SDS011;61651;45.508;12.232;2024-02-15T03:32:00;39.30;;;31.47;;
14007;SDS011;61651;45.508;12.232;2024-02-15T03:35:04;38.63;;;28.87;;
14007;SDS011;61651;45.508;12.232;2024-02-15T03:38:07;31.47;;;27.50;;
14007;SDS011;61651;45.508;12.232;2024-02-15T03:41:10;31.73;;;26.53;;
14007;SDS011;61651;45.508;12.232;2024-02-15T03:44:12;30.77;;;27.67;;
14007;SDS011;61651;45.508;12.232;2024-02-15T03:47:14;29.20;;;26.17;;
14007;SDS011;61651;45.508;12.232;2024-02-15T03:50:16;29.43;;;26.53;;
14007;SDS011;61651;45.508;12.232;2024-02-15T03:53:18;28.00;;;25.40;;
14007;SDS011;61651;45.508;12.232;2024-02-15T03:56:22;28.30;;;25.53;;
14007;SDS011;61651;45.508;12.232;2024-02-15T03:59:24;29.57;;;26.83;;
14007;SDS011;61651;45.508;12.232;2024-02-15T04:02:27;31.73;;;28.53;;
14007;SDS011;61651;45.508;12.232;2024-02-15T04:05:30;31.33;;;28.43;;
14007;SDS011;61651;45.508;12.232;2024-02-15T04:08:32;30.43;;;27.30;;
14007;SDS011;61651;45.508;12.232;2024-02-15T04:11:37;31.27;;;28.13;;
14007;SDS011;61651;45.508;12.232;2024-02-15T04:14:39;31.03;;;28.20;;
14007;SDS011;61651;45.508;12.232;2024-02-15T04:17:41;29.00;;;26.27;;
14007;SDS011;61651;45.508;12.232;2024-02-15T04:20:44;29.53;;;26.73;;
14007;SDS011;61651;45.508;12.232;2024-02-15T04:23:46;29.60;;;26.60;;
14007;SDS011;61651;45.508;12.232;2024-02-15T04:26:50;30.20;;;27.10;;
14007;SDS011;61651;45.508;12.232;2024-02-15T04:29:52;30.03;;;26.93;;
14007;SDS011;61651;45.508;12.232;2024-02-15T04:32:54;81.37;;;26.97;;
14007;SDS011;61651;45.508;12.232;2024-02-15T04:35:56;44.73;;;26.33;;
14007;SDS011;61651;45.508;12.232;2024-02-15T04:38:58;36.03;;;28.63;;
14007;SDS011;61651;45.508;12.232;2024-02-15T04:42:03;84.73;;;27.17;;
14007;SDS011;61651;45.508;12.232;2024-02-15T04:45:06;34.33;;;26.37;;
14007;SDS011;61651;45.508;12.232;2024-02-15T04:48:11;32.00;;;26.07;;
14007;SDS011;61651;45.508;12.232;2024-02-15T04:51:14;51.57;;;27.07;;
14007;SDS011;61651;45.508;12.232;2024-02-15T04:54:16;57.90;;;28.93;;
14007;SDS011;61651;45.508;12.232;2024-02-15T04:57:19;71.13;;;26.47;;
14007;SDS011;61651;45.508;12.232;2024-02-15T05:00:22;42.73;;;25.37;;
14007;SDS011;61651;45.508;12.232;2024-02-15T05:03:25;49.30;;;25.57;;
14007;SDS011;61651;45.508;12.232;2024-02-15T05:06:29;86.80;;;25.70;;
14007;SDS011;61651;45.508;12.232;2024-02-15T05:09:32;82.00;;;26.17;;
14007;SDS011;61651;45.508;12.232;2024-02-15T05:12:36;78.27;;;25.63;;
14007;SDS011;61651;45.508;12.232;2024-02-15T05:15:40;72.47;;;25.93;;
14007;SDS011;61651;45.508;12.232;2024-02-15T05:18:42;85.13;;;24.60;;
14007;SDS011;61651;45.508;12.232;2024-02-15T05:21:44;45.83;;;24.70;;
14007;SDS011;61651;45.508;12.232;2024-02-15T05:24:47;69.97;;;25.97;;
14007;SDS011;61651;45.508;12.232;2024-02-15T05:27:50;33.20;;;25.60;;
14007;SDS011;61651;45.508;12.232;2024-02-15T05:31:08;52.97;;;24.50;;
14007;SDS011;61651;45.508;12.232;2024-02-15T05:34:11;56.70;;;26.47;;
14007;SDS011;61651;45.508;12.232;2024-02-15T05:37:13;62.23;;;25.13;;
14007;SDS011;61651;45.508;12.232;2024-02-15T05:40:16;62.03;;;25.17;;
14007;SDS011;61651;45.508;12.232;2024-02-15T05:43:20;85.97;;;25.13;;
14007;SDS011;61651;45.508;12.232;2024-02-15T05:46:24;66.70;;;24.17;;
14007;SDS011;61651;45.508;12.232;2024-02-15T05:49:28;62.27;;;23.57;;
14007;SDS011;61651;45.508;12.232;2024-02-15T05:52:30;39.53;;;23.03;;
14007;SDS011;61651;45.508;12.232;2024-02-15T05:55:32;36.60;;;22.10;;
14007;SDS011;61651;45.508;12.232;2024-02-15T05:58:37;32.47;;;23.13;;
14007;SDS011;61651;45.508;12.232;2024-02-15T06:01:39;31.57;;;22.83;;
14007;SDS011;61651;45.508;12.232;2024-02-15T06:04:42;26.70;;;22.00;;
14007;SDS011;61651;45.508;12.232;2024-02-15T06:07:44;46.23;;;22.67;;
14007;SDS011;61651;45.508;12.232;2024-02-15T06:10:47;47.10;;;22.00;;
14007;SDS011;61651;45.508;12.232;2024-02-15T06:13:51;33.10;;;22.47;;
14007;SDS011;61651;45.508;12.232;2024-02-15T06:16:54;42.17;;;23.53;;
14007;SDS011;61651;45.508;12.232;2024-02-15T06:19:58;35.40;;;23.67;;
14007;SDS011;61651;45.508;12.232;2024-02-15T06:23:00;37.60;;;23.43;;
14007;SDS011;61651;45.508;12.232;2024-02-15T06:26:05;32.80;;;23.97;;
14007;SDS011;61651;45.508;12.232;2024-02-15T06:29:08;27.83;;;25.07;;
14007;SDS011;61651;45.508;12.232;2024-02-15T06:32:28;44.93;;;31.03;;
14007;SDS011;61651;45.508;12.232;2024-02-15T06:35:47;63.53;;;34.47;;
14007;SDS011;61651;45.508;12.232;2024-02-15T06:39:06;33.87;;;23.50;;
14007;SDS011;61651;45.508;12.232;2024-02-15T06:42:26;65.00;;;22.97;;
14007;SDS011;61651;45.508;12.232;2024-02-15T06:45:32;63.03;;;23.30;;
14007;SDS011;61651;45.508;12.232;2024-02-15T06:48:36;43.97;;;24.43;;
14007;SDS011;61651;45.508;12.232;2024-02-15T06:51:38;35.03;;;27.00;;
14007;SDS011;61651;45.508;12.232;2024-02-15T06:54:40;61.83;;;29.73;;
14007;SDS011;61651;45.508;12.232;2024-02-15T06:57:43;32.10;;;26.13;;
14007;SDS011;61651;45.508;12.232;2024-02-15T07:00:48;65.30;;;26.90;;
14007;SDS011;61651;45.508;12.232;2024-02-15T07:03:51;41.23;;;26.40;;
14007;SDS011;61651;45.508;12.232;2024-02-15T07:06:53;73.97;;;26.53;;
14007;SDS011;61651;45.508;12.232;2024-02-15T07:09:55;50.10;;;26.53;;
14007;SDS011;61651;45.508;12.232;2024-02-15T07:12:57;37.80;;;26.50;;
14007;SDS011;61651;45.508;12.232;2024-02-15T07:16:01;62.57;;;26.27;;
14007;SDS011;61651;45.508;12.232;2024-02-15T07:19:04;80.80;;;27.27;;
14007;SDS011;61651;45.508;12.232;2024-02-15T07:22:06;66.50;;;26.57;;
14007;SDS011;61651;45.508;12.232;2024-02-15T07:25:09;82.33;;;28.30;;
14007;SDS011;61651;45.508;12.232;2024-02-15T07:28:10;95.33;;;27.00;;
14007;SDS011;61651;45.508;12.232;2024-02-15T07:31:14;81.17;;;26.60;;
14007;SDS011;61651;45.508;12.232;2024-02-15T07:34:16;28.20;;;24.40;;
14007;SDS011;61651;45.508;12.232;2024-02-15T07:37:19;58.47;;;25.80;;
14007;SDS011;61651;45.508;12.232;2024-02-15T07:40:24;90.13;;;26.37;;
14007;SDS011;61651;45.508;12.232;2024-02-15T07:43:28;86.53;;;26.70;;
14007;SDS011;61651;45.508;12.232;2024-02-15T07:46:31;53.63;;;25.83;;
14007;SDS011;61651;45.508;12.232;2024-02-15T07:49:34;38.33;;;25.83;;
14007;SDS011;61651;45.508;12.232;2024-02-15T07:52:36;70.10;;;25.90;;
14007;SDS011;61651;45.508;12.232;2024-02-15T07:55:38;31.93;;;26.57;;
14007;SDS011;61651;45.508;12.232;2024-02-15T07:58:41;46.83;;;25.17;;
14007;SDS011;61651;45.508;12.232;2024-02-15T08:01:47;37.30;;;27.37;;
14007;SDS011;61651;45.508;12.232;2024-02-15T08:04:50;37.43;;;26.63;;
14007;SDS011;61651;45.508;12.232;2024-02-15T08:07:54;35.63;;;26.93;;
14007;SDS011;61651;45.508;12.232;2024-02-15T08:10:57;38.53;;;27.40;;
14007;SDS011;61651;45.508;12.232;2024-02-15T08:13:59;38.30;;;26.37;;
14007;SDS011;61651;45.508;12.232;2024-02-15T08:17:03;36.63;;;26.10;;
14007;SDS011;61651;45.508;12.232;2024-02-15T08:20:05;33.67;;;26.10;;
14007;SDS011;61651;45.508;12.232;2024-02-15T08:23:08;47.00;;;25.83;;
14007;SDS011;61651;45.508;12.232;2024-02-15T08:26:11;53.53;;;26.17;;
14007;SDS011;61651;45.508;12.232;2024-02-15T08:29:13;43.13;;;26.03;;
14007;SDS011;61651;45.508;12.232;2024-02-15T08:32:16;51.83;;;28.33;;
14007;SDS011;61651;45.508;12.232;2024-02-15T08:35:18;44.67;;;27.43;;
14007;SDS011;61651;45.508;12.232;2024-02-15T08:38:21;32.87;;;27.33;;
14007;SDS011;61651;45.508;12.232;2024-02-15T08:41:23;36.27;;;26.87;;
14007;SDS011;61651;45.508;12.232;2024-02-15T08:44:26;39.70;;;28.23;;
14007;SDS011;61651;45.508;12.232;2024-02-15T08:47:30;35.30;;;27.27;;
14007;SDS011;61651;45.508;12.232;2024-02-15T08:50:32;43.77;;;29.17;;
14007;SDS011;61651;45.508;12.232;2024-02-15T08:53:34;49.73;;;30.50;;
14007;SDS011;61651;45.508;12.232;2024-02-15T08:56:36;39.03;;;30.43;;
14007;SDS011;61651;45.508;12.232;2024-02-15T08:59:38;42.50;;;32.47;;
14007;SDS011;61651;45.508;12.232;2024-02-15T09:02:42;46.83;;;34.23;;
14007;SDS011;61651;45.508;12.232;2024-02-15T09:05:44;53.80;;;33.60;;
14007;SDS011;61651;45.508;12.232;2024-02-15T09:08:46;40.07;;;33.07;;
14007;SDS011;61651;45.508;12.232;2024-02-15T09:11:48;41.30;;;33.20;;
14007;SDS011;61651;45.508;12.232;2024-02-15T09:14:50;39.67;;;34.50;;
14007;SDS011;61651;45.508;12.232;2024-02-15T09:17:54;38.10;;;33.57;;
14007;SDS011;61651;45.508;12.232;2024-02-15T09:20:57;40.43;;;33.23;;
14007;SDS011;61651;45.508;12.232;2024-02-15T09:23:59;38.73;;;34.27;;
14007;SDS011;61651;45.508;12.232;2024-02-15T09:27:02;42.73;;;34.73;;
14007;SDS011;61651;45.508;12.232;2024-02-15T09:30:04;40.83;;;35.80;;
14007;SDS011;61651;45.508;12.232;2024-02-15T09:33:11;48.60;;;35.73;;
14007;SDS011;61651;45.508;12.232;2024-02-15T09:36:13;39.17;;;34.30;;
14007;SDS011;61651;45.508;12.232;2024-02-15T09:39:17;50.17;;;33.67;;
14007;SDS011;61651;45.508;12.232;2024-02-15T09:42:19;45.77;;;34.70;;
14007;SDS011;61651;45.508;12.232;2024-02-15T09:45:21;45.90;;;34.37;;
14007;SDS011;61651;45.508;12.232;2024-02-15T09:48:26;39.43;;;34.53;;
14007;SDS011;61651;45.508;12.232;2024-02-15T09:51:31;40.03;;;35.90;;
14007;SDS011;61651;45.508;12.232;2024-02-15T09:54:35;41.23;;;36.87;;
14007;SDS011;61651;45.508;12.232;2024-02-15T09:57:41;45.50;;;37.97;;
14007;SDS011;61651;45.508;12.232;2024-02-15T10:00:44;44.47;;;38.83;;
14007;SDS011;61651;45.508;12.232;2024-02-15T10:03:48;41.47;;;37.03;;
14007;SDS011;61651;45.508;12.232;2024-02-15T10:06:51;40.30;;;36.10;;
14007;SDS011;61651;45.508;12.232;2024-02-15T10:09:54;44.53;;;37.83;;
14007;SDS011;61651;45.508;12.232;2024-02-15T10:12:56;43.60;;;38.77;;
14007;SDS011;61651;45.508;12.232;2024-02-15T10:16:05;43.43;;;38.60;;
14007;SDS011;61651;45.508;12.232;2024-02-15T10:19:17;45.97;;;40.87;;
14007;SDS011;61651;45.508;12.232;2024-02-15T10:22:21;46.90;;;40.80;;
14007;SDS011;61651;45.508;12.232;2024-02-15T10:25:26;51.17;;;42.60;;
14007;SDS011;61651;45.508;12.232;2024-02-15T10:28:29;58.77;;;46.33;;
14007;SDS011;61651;45.508;12.232;2024-02-15T10:31:31;53.10;;;44.30;;
14007;SDS011;61651;45.508;12.232;2024-02-15T10:34:34;49.57;;;42.83;;
14007;SDS011;61651;45.508;12.232;2024-02-15T10:37:44;53.23;;;45.03;;
14007;SDS011;61651;45.508;12.232;2024-02-15T10:40:47;52.60;;;45.90;;
14007;SDS011;61651;45.508;12.232;2024-02-15T10:43:49;61.40;;;47.63;;
14007;SDS011;61651;45.508;12.232;2024-02-15T10:46:53;62.90;;;48.13;;
14007;SDS011;61651;45.508;12.232;2024-02-15T10:49:57;59.90;;;49.27;;
14007;SDS011;61651;45.508;12.232;2024-02-15T10:52:59;55.00;;;46.53;;
14007;SDS011;61651;45.508;12.232;2024-02-15T10:56:04;57.77;;;46.63;;
14007;SDS011;61651;45.508;12.232;2024-02-15T10:59:16;70.73;;;50.57;;
14007;SDS011;61651;45.508;12.232;2024-02-15T11:02:23;69.27;;;52.20;;
14007;SDS011;61651;45.508;12.232;2024-02-15T11:05:31;61.20;;;50.90;;
14007;SDS011;61651;45.508;12.232;2024-02-15T11:08:36;51.80;;;44.77;;
14007;SDS011;61651;45.508;12.232;2024-02-15T11:11:39;64.90;;;50.20;;
14007;SDS011;61651;45.508;12.232;2024-02-15T11:14:44;68.17;;;55.93;;
14007;SDS011;61651;45.508;12.232;2024-02-15T11:17:47;56.60;;;47.10;;
14007;SDS011;61651;45.508;12.232;2024-02-15T11:20:52;64.60;;;51.50;;
14007;SDS011;61651;45.508;12.232;2024-02-15T11:23:56;62.90;;;53.43;;
14007;SDS011;61651;45.508;12.232;2024-02-15T11:26:58;62.73;;;52.13;;
14007;SDS011;61651;45.508;12.232;2024-02-15T11:30:02;59.23;;;48.57;;
14007;SDS011;61651;45.508;12.232;2024-02-15T11:33:23;57.10;;;48.57;;
14007;SDS011;61651;45.508;12.232;2024-02-15T11:36:31;60.10;;;50.43;;
14007;SDS011;61651;45.508;12.232;2024-02-15T11:39:41;57.37;;;49.87;;
14007;SDS011;61651;45.508;12.232;2024-02-15T11:42:44;63.83;;;57.13;;
14007;SDS011;61651;45.508;12.232;2024-02-15T11:45:46;58.58;;;51.47;;
14007;SDS011;61651;45.508;12.232;2024-02-15T11:48:52;60.17;;;49.75;;
14007;SDS011;61651;45.508;12.232;2024-02-15T11:52:02;58.58;;;49.30;;
14007;SDS011;61651;45.508;12.232;2024-02-15T11:55:11;54.45;;;47.33;;
14007;SDS011;61651;45.508;12.232;2024-02-15T11:58:16;62.63;;;50.17;;
14007;SDS011;61651;45.508;12.232;2024-02-15T12:01:22;52.17;;;45.93;;
14007;SDS011;61651;45.508;12.232;2024-02-15T12:04:41;54.47;;;46.25;;
14007;SDS011;61651;45.508;12.232;2024-02-15T12:08:03;53.70;;;45.65;;
14007;SDS011;61651;45.508;12.232;2024-02-15T12:11:23;53.10;;;45.42;;
14007;SDS011;61651;45.508;12.232;2024-02-15T12:14:42;50.28;;;43.67;;
14007;SDS011;61651;45.508;12.232;2024-02-15T12:18:13;52.83;;;44.35;;
14007;SDS011;61651;45.508;12.232;2024-02-15T12:21:32;53.70;;;46.53;;
14007;SDS011;61651;45.508;12.232;2024-02-15T12:24:37;53.10;;;45.42;;
14007;SDS011;61651;45.508;12.232;2024-02-15T12:27:39;56.33;;;45.38;;
14007;SDS011;61651;45.508;12.232;2024-02-15T12:30:43;56.53;;;43.60;;
14007;SDS011;61651;45.508;12.232;2024-02-15T12:33:46;54.13;;;44.80;;
14007;SDS011;61651;45.508;12.232;2024-02-15T12:36:50;48.53;;;42.45;;
14007;SDS011;61651;45.508;12.232;2024-02-15T12:39:54;53.45;;;43.60;;
14007;SDS011;61651;45.508;12.232;2024-02-15T12:42:56;49.88;;;43.15;;
14007;SDS011;61651;45.508;12.232;2024-02-15T12:46:00;50.88;;;41.75;;
14007;SDS011;61651;45.508;12.232;2024-02-15T12:49:09;47.58;;;41.70;;
14007;SDS011;61651;45.508;12.232;2024-02-15T12:52:32;50.72;;;43.08;;
14007;SDS011;61651;45.508;12.232;2024-02-15T12:55:37;50.97;;;42.83;;
14007;SDS011;61651;45.508;12.232;2024-02-15T12:58:40;55.47;;;45.53;;
14007;SDS011;61651;45.508;12.232;2024-02-15T13:01:43;55.17;;;46.13;;
14007;SDS011;61651;45.508;12.232;2024-02-15T13:04:46;51.42;;;44.13;;
14007;SDS011;61651;45.508;12.232;2024-02-15T13:07:49;56.47;;;50.15;;
14007;SDS011;61651;45.508;12.232;2024-02-15T13:10:52;53.78;;;44.80;;
14007;SDS011;61651;45.508;12.232;2024-02-15T13:13:56;52.88;;;44.58;;
14007;SDS011;61651;45.508;12.232;2024-02-15T13:16:58;61.47;;;48.20;;
14007;SDS011;61651;45.508;12.232;2024-02-15T13:20:02;52.80;;;46.55;;
14007;SDS011;61651;45.508;12.232;2024-02-15T13:23:05;55.90;;;45.72;;
14007;SDS011;61651;45.508;12.232;2024-02-15T13:26:16;58.20;;;45.60;;
14007;SDS011;61651;45.508;12.232;2024-02-15T13:29:20;55.47;;;48.50;;
14007;SDS011;61651;45.508;12.232;2024-02-15T13:32:23;54.10;;;45.83;;
14007;SDS011;61651;45.508;12.232;2024-02-15T13:35:25;50.25;;;44.53;;
14007;SDS011;61651;45.508;12.232;2024-02-15T13:38:27;52.33;;;46.42;;
14007;SDS011;61651;45.508;12.232;2024-02-15T13:41:31;52.22;;;45.42;;
14007;SDS011;61651;45.508;12.232;2024-02-15T13:44:33;55.13;;;49.53;;
14007;SDS011;61651;45.508;12.232;2024-02-15T13:47:35;51.33;;;44.80;;
14007;SDS011;61651;45.508;12.232;2024-02-15T13:50:37;58.13;;;47.47;;
14007;SDS011;61651;45.508;12.232;2024-02-15T13:53:40;51.15;;;45.63;;
14007;SDS011;61651;45.508;12.232;2024-02-15T13:56:45;52.67;;;45.33;;
14007;SDS011;61651;45.508;12.232;2024-02-15T13:59:47;51.83;;;45.30;;
14007;SDS011;61651;45.508;12.232;2024-02-15T14:02:49;52.25;;;45.45;;
14007;SDS011;61651;45.508;12.232;2024-02-15T14:05:52;47.28;;;39.97;;
14007;SDS011;61651;45.508;12.232;2024-02-15T14:08:54;45.63;;;37.85;;
14007;SDS011;61651;45.508;12.232;2024-02-15T14:11:57;41.78;;;37.20;;
14007;SDS011;61651;45.508;12.232;2024-02-15T14:15:02;42.45;;;36.83;;
14007;SDS011;61651;45.508;12.232;2024-02-15T14:18:06;43.53;;;36.63;;
14007;SDS011;61651;45.508;12.232;2024-02-15T14:21:10;49.65;;;41.17;;
14007;SDS011;61651;45.508;12.232;2024-02-15T14:24:13;41.60;;;36.78;;
14007;SDS011;61651;45.508;12.232;2024-02-15T14:27:17;40.05;;;35.75;;
14007;SDS011;61651;45.508;12.232;2024-02-15T14:30:19;43.08;;;38.20;;
14007;SDS011;61651;45.508;12.232;2024-02-15T14:33:38;43.38;;;38.08;;
14007;SDS011;61651;45.508;12.232;2024-02-15T14:36:41;44.15;;;38.05;;
14007;SDS011;61651;45.508;12.232;2024-02-15T14:39:43;46.00;;;39.47;;
14007;SDS011;61651;45.508;12.232;2024-02-15T14:42:47;42.50;;;37.78;;
14007;SDS011;61651;45.508;12.232;2024-02-15T14:45:49;52.47;;;42.17;;
14007;SDS011;61651;45.508;12.232;2024-02-15T14:48:51;46.38;;;40.95;;
14007;SDS011;61651;45.508;12.232;2024-02-15T14:51:54;52.35;;;40.47;;
14007;SDS011;61651;45.508;12.232;2024-02-15T14:54:56;45.13;;;40.40;;
14007;SDS011;61651;45.508;12.232;2024-02-15T14:58:00;49.22;;;42.38;;
14007;SDS011;61651;45.508;12.232;2024-02-15T15:01:03;54.05;;;41.30;;
14007;SDS011;61651;45.508;12.232;2024-02-15T15:04:05;51.08;;;40.25;;
14007;SDS011;61651;45.508;12.232;2024-02-15T15:07:10;44.53;;;39.35;;
14007;SDS011;61651;45.508;12.232;2024-02-15T15:10:26;43.15;;;38.47;;
14007;SDS011;61651;45.508;12.232;2024-02-15T15:13:46;44.60;;;39.90;;
14007;SDS011;61651;45.508;12.232;2024-02-15T15:16:48;44.53;;;39.90;;
14007;SDS011;61651;45.508;12.232;2024-02-15T15:19:50;43.63;;;38.90;;
14007;SDS011;61651;45.508;12.232;2024-02-15T15:22:52;45.67;;;39.28;;
14007;SDS011;61651;45.508;12.232;2024-02-15T15:25:56;42.75;;;37.47;;
14007;SDS011;61651;45.508;12.232;2024-02-15T15:28:59;43.72;;;38.70;;
14007;SDS011;61651;45.508;12.232;2024-02-15T15:32:01;43.85;;;39.30;;
14007;SDS011;61651;45.508;12.232;2024-02-15T15:35:03;46.45;;;39.67;;
14007;SDS011;61651;45.508;12.232;2024-02-15T15:38:09;46.00;;;38.92;;
14007;SDS011;61651;45.508;12.232;2024-02-15T15:41:11;42.15;;;36.92;;
14007;SDS011;61651;45.508;12.232;2024-02-15T15:44:14;44.72;;;38.85;;
14007;SDS011;61651;45.508;12.232;2024-02-15T15:47:16;44.95;;;39.25;;
14007;SDS011;61651;45.508;12.232;2024-02-15T15:50:19;45.53;;;38.08;;
14007;SDS011;61651;45.508;12.232;2024-02-15T15:53:21;41.78;;;37.25;;
14007;SDS011;61651;45.508;12.232;2024-02-15T15:56:23;42.83;;;37.28;;
14007;SDS011;61651;45.508;12.232;2024-02-15T15:59:27;44.28;;;38.10;;
14007;SDS011;61651;45.508;12.232;2024-02-15T16:02:29;43.03;;;36.90;;
14007;SDS011;61651;45.508;12.232;2024-02-15T16:05:31;41.88;;;37.33;;
14007;SDS011;61651;45.508;12.232;2024-02-15T16:08:33;40.90;;;36.25;;
14007;SDS011;61651;45.508;12.232;2024-02-15T16:11:35;40.88;;;36.30;;
14007;SDS011;61651;45.508;12.232;2024-02-15T16:14:38;41.42;;;35.50;;
14007;SDS011;61651;45.508;12.232;2024-02-15T16:17:42;42.15;;;36.08;;
14007;SDS011;61651;45.508;12.232;2024-02-15T16:20:45;40.60;;;35.75;;
14007;SDS011;61651;45.508;12.232;2024-02-15T16:23:47;41.50;;;35.22;;
14007;SDS011;61651;45.508;12.232;2024-02-15T16:26:49;41.17;;;36.72;;
14007;SDS011;61651;45.508;12.232;2024-02-15T16:29:53;44.33;;;36.72;;
14007;SDS011;61651;45.508;12.232;2024-02-15T16:32:55;45.55;;;36.55;;
14007;SDS011;61651;45.508;12.232;2024-02-15T16:35:57;45.40;;;38.13;;
14007;SDS011;61651;45.508;12.232;2024-02-15T16:38:59;42.80;;;38.20;;
14007;SDS011;61651;45.508;12.232;2024-02-15T16:42:01;45.78;;;39.28;;
14007;SDS011;61651;45.508;12.232;2024-02-15T16:45:07;45.42;;;39.05;;
14007;SDS011;61651;45.508;12.232;2024-02-15T16:48:09;45.45;;;39.95;;
14007;SDS011;61651;45.508;12.232;2024-02-15T16:51:11;43.08;;;38.45;;
14007;SDS011;61651;45.508;12.232;2024-02-15T16:54:14;46.03;;;38.70;;
14007;SDS011;61651;45.508;12.232;2024-02-15T16:57:17;43.30;;;38.45;;
14007;SDS011;61651;45.508;12.232;2024-02-15T17:00:20;48.58;;;38.78;;
14007;SDS011;61651;45.508;12.232;2024-02-15T17:03:22;53.58;;;41.70;;
14007;SDS011;61651;45.508;12.232;2024-02-15T17:06:25;48.15;;;39.33;;
14007;SDS011;61651;45.508;12.232;2024-02-15T17:09:28;44.10;;;39.30;;
14007;SDS011;61651;45.508;12.232;2024-02-15T17:12:30;44.67;;;38.95;;
14007;SDS011;61651;45.508;12.232;2024-02-15T17:15:33;44.13;;;39.40;;
14007;SDS011;61651;45.508;12.232;2024-02-15T17:18:36;44.13;;;38.13;;
14007;SDS011;61651;45.508;12.232;2024-02-15T17:21:39;55.28;;;42.85;;
14007;SDS011;61651;45.508;12.232;2024-02-15T17:24:42;56.10;;;43.53;;
14007;SDS011;61651;45.508;12.232;2024-02-15T17:27:44;57.28;;;43.92;;
14007;SDS011;61651;45.508;12.232;2024-02-15T17:30:48;52.30;;;43.10;;
14007;SDS011;61651;45.508;12.232;2024-02-15T17:33:50;45.38;;;40.40;;
14007;SDS011;61651;45.508;12.232;2024-02-15T17:36:52;51.70;;;42.33;;
14007;SDS011;61651;45.508;12.232;2024-02-15T17:39:54;57.63;;;44.08;;